Oakland, MD

11:04 AM EST on December 10, 2016 (GMT -0500)
Cranesville Rd, Terra Alta, WV 26764 | | Change Station

Elev 2630 ft 39.45 °N, 79.54 °W | Updated 1 second ago

Overcast
Overcast
18.1 °F
Feels Like 18 °F
N
0.0
Wind Variable Wind from SSW
Gusts 0.0 mph

Today
High -- | Low -- °F
--% Chance of Precip.
Yesterday
High -- | Low -- °F
Precip. -- in
Pressure 30.33 in
Visibility 7.0 miles
Clouds Mostly Cloudy 1700 ft
Overcast 2200 ft
Windchill 18 °F
Dew Point 15 °F
Humidity 86%
Rainfall 0.00 in
Snow Depth Not available.
7:27 AM 4:54 PM
Waxing Gibbous, 84% visible
METAR K2G4 101550Z AUTO 26005G14KT 7SM BKN017 OVC022 M09/M12 A3033 RMK AO1
Pressure 30.33 in
Visibility 7.0 miles
Clouds Mostly Cloudy 1700 ft
Overcast 2200 ft
Windchill 18 °F
Dew Point 15 °F
Humidity 86%
Rainfall 0.00 in
Snow Depth Not available.
7:27 AM 4:54 PM
Waxing Gibbous, 84% visible
METAR K2G4 101550Z AUTO 26005G14KT 7SM BKN017 OVC022 M09/M12 A3033 RMK AO1

10-Day Weather Forecast

Almanac

Astronomy

Dec. 10, 2016 Rise Set
Actual Time
Civil Twilight
Nautical Twilight
Astronomical Twilight
Moon
Length of Visible Light
Length of Day
Tomorrow will be .
, % of the Moon is Illuminated

Today's Extremes

State Highs State Lows

Community

WunderPhotos

Upload Photos

1,956,569 photos uploaded!

WunderBlog® & News

Nearby

Air Quality

  Air Quality AQ Index Pollutant
Not available.

Snow Depth

Station Depth Elevation

Earthquake Activity

City Distance Mag. Time & Date
Minimum magnitude displayed is 2.5.

Coastal Water Temperatures

Place Temperature

Stations

Nearby Weather Stations

Station Location Temp. Windchill Dew Point Humidity Wind Precip. Elev Updated Type
                   

Watches & Warnings

There are currently no watches in effect.